Time;durP1;ratioP1;P1;durP2;ratioP2;P2;SDS_P1;SDS_P2;PMS_P1;PMS_P2;Temp;Humidity;BMP_temperature;BMP_pressure;BME280_temperature;BME280_humidity;BME280_pressure;Samples;Min_cycle;Max_cycle;Signal;HPM_P1;HPM_P2
2022/07/24 00:01:10;;;;;;;10.40;7.78;;;22.30;82.30;;;21.62;61.02;97650.81;5030619;28;20418;-80
2022/07/24 00:03:36;;;;;;;9.52;7.40;;;22.30;81.90;;;21.52;61.27;97648.41;5030201;28;20403;-82
2022/07/24 00:06:02;;;;;;;9.45;6.97;;;22.20;82.20;;;21.45;61.50;97651.56;5030200;28;20778;-80
2022/07/24 00:08:29;;;;;;;9.18;6.88;;;22.10;82.50;;;21.43;61.21;97655.69;5029532;28;20403;-79
2022/07/24 00:10:55;;;;;;;8.38;6.95;;;22.10;82.20;;;21.52;61.12;97653.81;5030115;28;20413;-79
2022/07/24 00:13:21;;;;;;;9.10;6.80;;;22.20;82.00;;;21.44;61.17;97655.38;5030070;28;20407;-82
2022/07/24 00:15:47;;;;;;;10.93;7.40;;;22.10;82.00;;;21.47;61.55;97654.75;5029926;28;20885;-79
2022/07/24 00:18:13;;;;;;;11.80;7.30;;;22.10;82.70;;;21.41;61.46;97661.41;5029541;28;20474;-81
2022/07/24 00:20:39;;;;;;;9.17;7.03;;;22.00;82.80;;;21.32;61.81;97651.72;5029594;28;20407;-81
2022/07/24 00:23:05;;;;;;;9.00;7.10;;;22.00;83.00;;;21.36;61.75;97653.47;5029830;28;20475;-79
2022/07/24 00:25:32;;;;;;;8.40;6.97;;;22.00;83.30;;;21.35;62.02;97654.56;5029753;28;20750;-80
2022/07/24 00:27:58;;;;;;;10.00;7.10;;;22.00;83.40;;;21.34;62.54;97653.00;5029949;28;20403;-80
2022/07/24 00:30:24;;;;;;;8.40;7.10;;;22.00;84.10;;;21.32;62.49;97641.75;5028967;28;20411;-80
2022/07/24 00:32:50;;;;;;;10.15;7.50;;;22.00;84.40;;;21.33;62.41;97654.09;5029887;28;20464;-80
2022/07/24 00:35:17;;;;;;;10.98;7.90;;;22.00;84.20;;;21.44;62.09;97646.50;5029685;28;20395;-80
2022/07/24 00:37:46;;;;;;;9.38;7.10;;;22.00;84.20;;;21.40;62.06;97649.03;5029821;28;20427;-80
2022/07/24 00:40:12;;;;;;;9.73;7.35;;;22.10;84.10;;;21.34;62.43;97650.31;5028933;28;20482;-80
2022/07/24 00:42:39;;;;;;;9.50;7.22;;;22.00;84.40;;;21.34;62.55;97644.91;5029810;28;20407;-79
2022/07/24 00:45:07;;;;;;;12.98;7.32;;;22.00;84.60;;;21.36;62.58;97641.88;5029675;28;20410;-80
2022/07/24 00:47:33;;;;;;;8.43;7.20;;;22.00;84.80;;;21.30;62.78;97645.84;5029753;28;20415;-80
2022/07/24 00:50:00;;;;;;;11.50;7.22;;;21.90;84.90;;;21.30;62.86;97654.72;5029073;28;20785;-80
2022/07/24 00:52:26;;;;;;;8.53;7.07;;;21.90;85.40;;;21.32;63.52;97654.41;5029630;28;20507;-80
2022/07/24 00:54:53;;;;;;;8.98;7.22;;;22.00;86.20;;;21.29;63.89;97647.75;5029381;28;20860;-80
2022/07/24 00:57:19;;;;;;;11.88;7.78;;;21.90;86.80;;;21.26;63.87;97648.38;5029751;28;20395;-80
2022/07/24 00:59:46;;;;;;;10.05;7.80;;;21.90;87.00;;;21.27;64.09;97657.25;5029073;28;20399;-80
2022/07/24 01:02:12;;;;;;;8.20;7.20;;;21.90;87.40;;;21.27;64.19;97655.34;5029514;28;20896;-80
2022/07/24 01:04:39;;;;;;;10.43;7.23;;;21.90;87.50;;;21.24;64.28;97646.00;5029505;28;20414;-80
2022/07/24 01:07:05;;;;;;;10.35;7.35;;;21.90;87.70;;;21.26;64.04;97647.59;5029406;28;20418;-80
2022/07/24 01:09:32;;;;;;;9.80;7.72;;;21.90;87.80;;;21.26;64.37;97648.38;5028869;28;20403;-80
2022/07/24 01:11:58;;;;;;;10.15;7.85;;;21.90;88.60;;;21.26;64.53;97642.19;5029275;28;20418;-80
2022/07/24 01:14:24;;;;;;;10.57;7.70;;;21.90;88.50;;;21.24;64.44;97646.00;5029249;28;20411;-81
2022/07/24 01:16:52;;;;;;;8.48;7.55;;;21.90;88.70;;;21.27;64.66;97647.28;5029378;28;20398;-81
2022/07/24 01:19:18;;;;;;;10.27;7.97;;;21.90;88.90;;;21.27;64.55;97651.88;5028862;28;20431;-79
2022/07/24 01:21:50;;;;;;;11.85;8.35;;;21.90;88.90;;;21.26;64.74;97650.28;5029238;28;20431;-81
2022/07/24 01:24:17;;;;;;;8.70;7.70;;;21.90;89.40;;;21.22;64.96;97639.34;5011549;28;20919;-81
2022/07/24 01:26:44;;;;;;;11.18;7.93;;;21.90;89.80;;;21.18;65.18;97636.50;5029184;28;20419;-81
2022/07/24 01:29:10;;;;;;;10.73;8.20;;;21.90;90.10;;;21.16;65.19;97643.25;5028752;28;20407;-79
2022/07/24 01:31:36;;;;;;;11.55;8.20;;;21.90;90.10;;;21.17;64.81;97645.66;5029099;28;20449;-81
2022/07/24 01:34:03;;;;;;;10.33;8.57;;;21.80;89.90;;;21.09;65.02;97637.53;5029095;28;20403;-80
2022/07/24 01:36:29;;;;;;;10.50;7.93;;;21.80;90.10;;;21.04;65.14;97641.19;5029453;28;20805;-80
2022/07/24 01:38:57;;;;;;;10.70;8.00;;;21.70;90.20;;;21.02;65.66;97647.97;5029536;28;20660;-80
2022/07/24 01:41:23;;;;;;;9.75;8.00;;;21.70;90.50;;;20.98;65.70;97645.09;5032684;28;20442;-80
2022/07/24 01:43:49;;;;;;;10.83;8.80;;;21.60;90.70;;;20.95;65.94;97647.63;5032734;28;20553;-79
2022/07/24 01:46:15;;;;;;;10.53;8.70;;;21.60;90.90;;;20.94;65.81;97648.72;5032630;28;20502;-80
2022/07/24 01:48:42;;;;;;;10.27;7.63;;;21.60;91.00;;;20.86;65.87;97639.50;5032047;28;20473;-79
2022/07/24 01:51:08;;;;;;;9.35;7.47;;;21.50;90.90;;;20.81;65.90;97640.47;5032475;28;20399;-81
2022/07/24 01:53:35;;;;;;;10.52;8.20;;;21.50;91.00;;;20.83;65.46;97653.59;5032552;28;20403;-80
2022/07/24 01:56:03;;;;;;;10.45;7.45;;;21.50;90.80;;;20.75;65.44;97646.28;5059330;22;20439;-79
2022/07/24 01:58:29;;;;;;;8.18;7.10;;;21.40;90.80;;;20.70;65.20;97649.09;5071951;28;20408;-78
2022/07/24 02:00:55;;;;;;;8.93;7.22;;;21.40;90.60;;;20.61;65.18;97640.19;5072275;28;20441;-79
2022/07/24 02:03:21;;;;;;;10.80;7.15;;;21.30;90.60;;;20.60;65.06;97644.00;5072387;28;20404;-78
2022/07/24 02:05:47;;;;;;;10.23;7.20;;;21.30;90.50;;;20.56;65.06;97638.44;5070824;28;20877;-78
2022/07/24 02:08:13;;;;;;;8.25;6.65;;;21.30;90.50;;;20.51;64.92;97640.47;5071804;28;20411;-78
2022/07/24 02:10:39;;;;;;;8.32;6.93;;;21.20;90.40;;;20.45;64.88;97643.28;5072080;28;20435;-78
2022/07/24 02:13:07;;;;;;;9.45;7.03;;;21.20;90.40;;;20.42;65.21;97637.75;5072256;28;20400;-78
2022/07/24 02:15:34;;;;;;;9.43;7.18;;;21.10;90.50;;;20.39;64.98;97638.34;5072199;28;20493;-79
2022/07/24 02:18:01;;;;;;;11.82;7.40;;;21.10;90.60;;;20.33;64.76;97634.16;5072247;28;20403;-78
2022/07/24 02:20:28;;;;;;;9.07;7.00;;;21.00;90.30;;;20.29;64.90;97634.00;5071877;28;20456;-78
2022/07/24 02:22:55;;;;;;;9.17;7.10;;;21.00;90.40;;;20.30;64.99;97630.19;5072188;28;20832;-78
2022/07/24 02:25:21;;;;;;;10.82;7.45;;;21.00;90.40;;;20.29;64.98;97642.06;5072011;28;20449;-78
2022/07/24 02:27:47;;;;;;;8.77;7.13;;;21.00;90.40;;;20.19;65.17;97638.81;5072098;28;20423;-78
2022/07/24 02:30:17;;;;;;;8.13;6.43;;;20.90;90.70;;;20.13;65.11;97637.38;5071253;28;20400;-78
2022/07/24 02:32:43;;;;;;;9.10;6.87;;;20.80;90.70;;;20.09;65.08;97639.88;5071463;28;20931;-78
2022/07/24 02:35:10;;;;;;;10.83;7.07;;;20.80;90.60;;;20.04;65.26;97634.63;5071824;28;20400;-78
2022/07/24 02:37:36;;;;;;;7.90;6.60;;;20.70;90.60;;;20.00;65.36;97636.31;5071945;28;20403;-79
2022/07/24 02:40:05;;;;;;;8.23;6.63;;;20.80;90.70;;;20.01;65.37;97635.22;5071110;28;20880;-79
2022/07/24 02:42:31;;;;;;;9.38;6.65;;;20.80;90.80;;;19.95;65.42;97629.19;5071857;28;20446;-78
2022/07/24 02:44:56;;;;;;;10.27;6.55;;;20.70;90.80;;;19.94;65.41;97641.03;5071649;28;20392;-77
2022/07/24 02:47:24;;;;;;;9.25;7.03;;;20.70;90.90;;;19.96;65.35;97641.53;5071491;28;20424;-77
2022/07/24 02:49:50;;;;;;;8.18;6.43;;;20.70;90.80;;;19.92;65.45;97637.06;5070566;28;20473;-77
2022/07/24 02:52:16;;;;;;;10.07;6.97;;;20.60;90.90;;;19.91;65.59;97638.16;5070841;28;20407;-78
2022/07/24 02:54:42;;;;;;;8.47;6.47;;;20.70;91.00;;;19.86;65.72;97633.69;5071500;28;20472;-78
2022/07/24 02:57:07;;;;;;;9.50;6.77;;;20.60;91.10;;;19.87;65.58;97635.28;5070282;28;20490;-78
2022/07/24 02:59:33;;;;;;;9.33;7.07;;;20.60;91.20;;;19.90;65.62;97636.56;5070734;28;20400;-78
2022/07/24 03:01:59;;;;;;;8.77;6.90;;;20.60;91.20;;;19.78;65.81;97633.63;5071089;28;20861;-78
2022/07/24 03:04:27;;;;;;;9.57;7.00;;;20.50;91.30;;;19.70;66.05;97641.31;5070057;28;20406;-78
2022/07/24 03:06:53;;;;;;;10.63;7.70;;;20.40;91.60;;;19.68;66.29;97642.72;5071114;28;20504;-78
2022/07/24 03:09:19;;;;;;;10.70;7.18;;;20.40;91.80;;;19.63;66.41;97640.94;5070589;28;20396;-78
2022/07/24 03:11:45;;;;;;;10.70;7.10;;;20.40;91.80;;;19.59;66.53;97639.97;5070990;28;20399;-77
2022/07/24 03:14:11;;;;;;;9.37;7.27;;;20.40;92.00;;;19.57;66.79;97636.78;5071030;28;20395;-77
2022/07/24 03:16:37;;;;;;;9.90;6.50;;;20.30;92.10;;;19.58;66.81;97640.25;5070988;28;20396;-77
2022/07/24 03:19:03;;;;;;;10.00;7.15;;;20.30;92.20;;;19.61;66.69;97636.97;5070438;28;20399;-77
2022/07/24 03:21:30;;;;;;;8.02;6.68;;;20.40;92.20;;;19.57;66.67;97639.47;5070709;28;20408;-77
2022/07/24 03:23:56;;;;;;;8.47;7.57;;;20.30;92.20;;;19.51;66.90;97639.88;5070824;28;20430;-77
2022/07/24 03:26:22;;;;;;;7.90;6.97;;;20.20;92.50;;;19.45;67.11;97641.88;5070628;28;20830;-77
2022/07/24 03:28:48;;;;;;;8.85;7.05;;;20.20;92.60;;;19.41;67.37;97643.53;5070215;28;20442;-78
2022/07/24 03:31:14;;;;;;;9.23;7.20;;;20.20;92.90;;;19.37;67.66;97642.56;5070552;28;20403;-78
2022/07/24 03:33:40;;;;;;;9.35;7.50;;;20.10;93.10;;;19.37;68.00;97647.16;5070635;28;20404;-78
2022/07/24 03:36:08;;;;;;;9.55;7.43;;;20.10;93.50;;;19.31;67.99;97643.78;5070601;28;20800;-78
2022/07/24 03:38:35;;;;;;;9.32;7.03;;;20.00;93.60;;;19.29;68.11;97646.75;5070117;28;20464;-78
2022/07/24 03:41:01;;;;;;;8.73;7.18;;;20.10;93.70;;;19.25;68.37;97643.06;5070365;28;20399;-78
2022/07/24 03:43:27;;;;;;;10.95;7.78;;;20.00;93.90;;;19.24;68.25;97644.19;5069196;28;20420;-78
2022/07/24 03:45:53;;;;;;;9.48;7.55;;;20.00;94.00;;;19.21;68.07;97639.41;5070328;28;20486;-78
2022/07/24 03:48:19;;;;;;;10.50;8.15;;;19.90;93.90;;;19.23;68.13;97647.16;5070038;28;20408;-78
2022/07/24 03:50:45;;;;;;;12.30;7.20;;;20.00;94.00;;;19.30;67.97;97648.34;5070043;28;20396;-78
2022/07/24 03:53:11;;;;;;;9.85;7.25;;;20.00;93.90;;;19.27;67.94;97640.88;5070603;28;20395;-78
2022/07/24 03:55:38;;;;;;;8.90;7.13;;;20.00;93.90;;;19.16;68.36;97654.84;5069940;28;20447;-78
2022/07/24 03:58:04;;;;;;;9.35;6.82;;;19.90;94.20;;;19.11;68.60;97655.72;5069741;28;20427;-78
2022/07/24 04:00:31;;;;;;;8.15;7.00;;;19.80;94.50;;;19.09;68.67;97659.81;5070045;28;20803;-78
2022/07/24 04:02:56;;;;;;;8.63;6.95;;;19.80;94.70;;;19.11;68.67;97649.53;5069944;28;20392;-78
2022/07/24 04:05:22;;;;;;;8.90;6.97;;;19.90;94.80;;;19.15;68.57;97656.72;5070181;28;20406;-78
2022/07/24 04:07:48;;;;;;;10.30;7.53;;;19.90;94.70;;;19.14;68.51;97654.31;5070070;28;20419;-78
2022/07/24 04:10:14;;;;;;;11.07;7.43;;;19.90;94.70;;;19.08;68.58;97660.91;5069449;28;20403;-77
2022/07/24 04:12:42;;;;;;;9.00;7.10;;;19.80;94.80;;;19.07;68.65;97665.47;5069996;28;20411;-78
2022/07/24 04:15:09;;;;;;;10.48;7.55;;;19.80;94.90;;;19.05;68.76;97664.16;5069949;28;20562;-78
2022/07/24 04:17:38;;;;;;;8.73;6.95;;;19.80;95.20;;;19.07;68.83;97660.09;5070042;28;20440;-78
2022/07/24 04:20:06;;;;;;;11.07;7.60;;;19.80;95.30;;;19.11;68.97;97673.69;5069093;28;20411;-78
2022/07/24 04:22:32;;;;;;;10.45;7.57;;;19.80;95.50;;;19.15;68.92;97672.03;5070107;28;20435;-78
2022/07/24 04:24:58;;;;;;;9.15;7.70;;;19.80;95.60;;;19.14;69.18;97671.22;5069824;28;20487;-78
2022/07/24 04:27:24;;;;;;;9.03;6.97;;;19.80;95.70;;;19.08;69.35;97671.63;5069632;28;20947;-78
2022/07/24 04:29:51;;;;;;;9.30;7.00;;;19.80;96.00;;;19.07;69.66;97670.03;5069217;28;20757;-78
2022/07/24 04:32:17;;;;;;;7.65;6.85;;;19.80;96.30;;;19.09;69.70;97678.59;5069608;28;20419;-78
2022/07/24 04:34:43;;;;;;;8.68;6.88;;;19.80;96.50;;;19.10;70.05;97677.47;5069682;28;20873;-78
2022/07/24 04:37:09;;;;;;;9.13;7.22;;;19.80;96.90;;;19.16;70.52;97670.94;5069797;28;20408;-78
2022/07/24 04:39:35;;;;;;;12.18;7.63;;;19.90;97.20;;;19.17;70.26;97673.28;5069115;28;20403;-78
2022/07/24 04:42:01;;;;;;;9.60;7.97;;;19.90;97.10;;;19.23;70.13;97676.69;5069455;28;20495;-78
2022/07/24 04:44:27;;;;;;;8.90;7.22;;;19.90;97.20;;;19.30;69.88;97675.19;5069647;28;20461;-78
2022/07/24 04:46:54;;;;;;;9.75;7.25;;;20.00;97.20;;;19.32;70.05;97680.28;5069635;28;20435;-78
2022/07/24 04:49:20;;;;;;;7.32;6.60;;;20.00;97.30;;;19.37;70.06;97669.41;5069161;28;20758;-78
2022/07/24 04:51:46;;;;;;;8.02;6.90;;;20.10;97.40;;;19.45;70.21;97675.97;5069349;28;20410;-78
2022/07/24 04:54:12;;;;;;;7.45;6.53;;;20.10;97.70;;;19.53;70.27;97670.72;5069663;28;20435;-78
2022/07/24 04:56:38;;;;;;;8.23;7.30;;;20.20;97.90;;;19.63;70.67;97669.69;5069436;28;20896;-78
2022/07/24 04:59:03;;;;;;;8.98;7.07;;;20.30;98.30;;;19.71;70.84;97679.72;5067704;28;20490;-79
2022/07/24 05:01:29;;;;;;;9.10;7.18;;;20.40;98.50;;;19.79;70.61;97676.31;5069581;28;20422;-78
2022/07/24 05:03:58;;;;;;;10.00;7.85;;;20.50;98.40;;;19.88;70.09;97679.88;5069615;28;20403;-78
2022/07/24 05:06:24;;;;;;;8.65;7.20;;;20.50;98.10;;;19.98;69.86;97678.84;5069433;28;20403;-76
2022/07/24 05:08:50;;;;;;;8.85;7.03;;;20.60;97.90;;;20.07;69.80;97687.78;5068981;28;20399;-79
2022/07/24 05:11:16;;;;;;;7.28;6.57;;;20.70;97.80;;;20.17;69.36;97689.41;5067136;28;20924;-79
2022/07/24 05:13:42;;;;;;;8.15;6.80;;;20.80;97.80;;;20.26;69.56;97695.66;5062510;28;20427;-79
2022/07/24 05:16:08;;;;;;;8.52;7.25;;;20.90;97.70;;;20.33;69.47;97691.47;5063887;28;20449;-79
2022/07/24 05:18:35;;;;;;;9.73;7.30;;;21.00;97.50;;;20.42;68.82;97699.59;5061624;28;20417;-80
2022/07/24 05:21:03;;;;;;;8.70;7.00;;;21.10;97.10;;;20.51;68.37;97697.75;5062023;28;20490;-80
2022/07/24 05:23:29;;;;;;;8.27;6.82;;;21.20;96.70;;;20.59;68.24;97699.69;5062874;28;20480;-80
2022/07/24 05:25:55;;;;;;;8.68;7.18;;;21.20;96.40;;;20.66;68.10;97693.88;5063561;28;20482;-80
2022/07/24 05:28:21;;;;;;;8.67;7.43;;;21.30;96.30;;;20.74;68.04;97699.31;5061339;28;20409;-80
2022/07/24 05:30:47;;;;;;;8.13;7.23;;;21.40;96.20;;;20.81;67.63;97696.16;5067177;28;20392;-79
2022/07/24 05:33:13;;;;;;;9.80;6.97;;;21.40;95.90;;;20.87;67.34;97692.25;5070638;28;20403;-79
2022/07/24 05:35:39;;;;;;;8.50;7.10;;;21.50;95.70;;;20.95;67.28;97696.88;5067575;28;21446;-79
2022/07/24 05:38:06;;;;;;;8.57;7.13;;;21.60;95.60;;;21.02;66.92;97691.03;5054400;28;20757;-79
2022/07/24 05:40:32;;;;;;;8.80;7.13;;;21.60;95.20;;;21.07;66.77;97690.88;5062585;28;20397;-80
2022/07/24 05:42:58;;;;;;;8.70;7.28;;;21.70;95.00;;;21.11;66.81;97681.09;5061744;28;20904;-79
2022/07/24 05:45:24;;;;;;;7.43;6.55;;;21.70;95.00;;;21.14;67.02;97689.31;5063262;28;20769;-79
2022/07/24 05:47:50;;;;;;;9.43;7.70;;;21.70;95.00;;;21.16;67.02;97679.06;5062369;28;20413;-80
2022/07/24 05:50:16;;;;;;;9.32;7.30;;;21.80;95.10;;;21.19;67.05;97681.16;5061328;28;20796;-79
2022/07/24 05:52:42;;;;;;;8.13;7.28;;;21.80;95.10;;;21.22;67.08;97677.03;5061843;28;20460;-79
2022/07/24 05:55:10;;;;;;;8.73;7.30;;;21.90;95.20;;;21.27;66.95;97684.19;5061736;28;20393;-79
2022/07/24 05:57:36;;;;;;;7.03;6.30;;;21.90;95.20;;;21.30;66.72;97683.53;5061765;28;20878;-79
2022/07/24 06:00:03;;;;;;;9.15;7.03;;;21.90;95.10;;;21.33;66.78;97685.63;5060992;28;20443;-79
2022/07/24 06:02:29;;;;;;;9.48;7.93;;;21.90;95.10;;;21.37;66.76;97676.59;5058908;28;20401;-79
2022/07/24 06:04:55;;;;;;;7.97;7.13;;;22.00;95.00;;;21.43;66.85;97688.00;5061600;28;20407;-78
2022/07/24 06:07:21;;;;;;;10.50;8.23;;;22.00;95.10;;;21.47;66.75;97689.78;5062088;28;20794;-78
2022/07/24 06:09:47;;;;;;;8.77;7.17;;;22.00;95.10;;;21.51;66.67;97685.34;5061802;28;20395;-78
2022/07/24 06:12:14;;;;;;;9.73;7.90;;;22.10;95.00;;;21.54;66.49;97686.63;5062073;28;20412;-78
2022/07/24 06:14:40;;;;;;;9.55;7.50;;;22.10;94.90;;;21.57;66.64;97691.38;5058549;28;20483;-78
2022/07/24 06:17:06;;;;;;;8.73;7.28;;;22.10;94.90;;;21.59;66.53;97679.16;5071692;28;20480;-78
2022/07/24 06:19:32;;;;;;;8.32;7.43;;;22.20;94.80;;;21.63;66.27;97690.91;5071643;28;20431;-78
2022/07/24 06:21:58;;;;;;;9.63;7.10;;;22.20;94.60;;;21.67;65.55;97679.50;5070807;28;20415;-75
2022/07/24 06:24:23;;;;;;;9.13;7.15;;;22.20;94.00;;;21.70;65.26;97690.44;5067585;28;20447;-77
2022/07/24 06:26:49;;;;;;;9.27;6.90;;;22.30;93.70;;;21.75;65.32;97692.19;5054052;28;20474;-77
2022/07/24 06:29:17;;;;;;;8.23;6.93;;;22.30;93.60;;;21.79;65.16;97687.75;5071234;28;20404;-77
2022/07/24 06:31:43;;;;;;;8.85;7.32;;;22.30;93.50;;;21.83;65.03;97694.88;5071780;28;20897;-78
2022/07/24 06:34:09;;;;;;;8.18;6.80;;;22.40;93.20;;;21.87;64.02;97701.25;5071744;28;20410;-78
2022/07/24 06:36:35;;;;;;;8.68;7.38;;;22.40;92.70;;;21.92;63.86;97697.59;5071855;28;20404;-78
2022/07/24 06:39:00;;;;;;;11.48;7.72;;;22.40;92.20;;;21.96;63.52;97695.84;5071229;28;20396;-77
2022/07/24 06:41:26;;;;;;;8.93;7.47;;;22.50;91.90;;;22.02;63.52;97696.53;5071501;28;20414;-77
2022/07/24 06:43:53;;;;;;;9.20;7.18;;;22.50;91.70;;;22.06;63.39;97686.69;5071604;28;20399;-78
2022/07/24 06:46:20;;;;;;;9.27;7.87;;;22.60;92.00;;;22.10;63.45;97684.94;5068810;28;20847;-78
2022/07/24 06:48:46;;;;;;;9.23;7.63;;;22.60;91.70;;;22.16;63.28;97694.44;5060885;28;20424;-78
2022/07/24 06:51:12;;;;;;;9.38;7.50;;;22.70;91.50;;;22.21;63.33;97694.28;5068487;28;20407;-77
2022/07/24 06:53:40;;;;;;;10.45;8.18;;;22.70;91.40;;;22.25;62.61;97687.91;5071269;28;20427;-78
2022/07/24 06:56:07;;;;;;;11.50;8.80;;;22.80;90.90;;;22.30;62.46;97686.97;5071453;28;20831;-77
2022/07/24 06:58:33;;;;;;;10.30;7.80;;;22.80;90.60;;;22.35;62.02;97681.41;5059793;28;20447;-77
2022/07/24 07:00:59;;;;;;;10.37;7.90;;;22.90;90.30;;;22.39;61.72;97676.97;5061072;28;20397;-79
2022/07/24 07:03:26;;;;;;;9.10;7.70;;;22.90;90.00;;;22.45;61.49;97683.00;5071344;28;20400;-79
2022/07/24 07:05:52;;;;;;;9.50;7.35;;;23.00;89.30;;;22.48;61.21;97680.44;5071348;28;20395;-77
2022/07/24 07:08:18;;;;;;;8.00;7.20;;;23.00;89.10;;;22.54;61.04;97689.97;5070925;28;20777;-77
2022/07/24 07:10:44;;;;;;;9.25;7.80;;;23.00;88.40;;;22.57;60.84;97691.19;5071132;28;20400;-79
2022/07/24 07:13:10;;;;;;;8.60;7.20;;;23.10;88.00;;;22.61;60.45;97681.38;5071277;28;20453;-78
2022/07/24 07:15:35;;;;;;;8.80;7.53;;;23.10;87.50;;;22.64;60.52;97684.19;5070831;28;20406;-78
2022/07/24 07:18:02;;;;;;;8.80;6.87;;;23.20;87.40;;;22.68;60.18;97687.06;5070784;28;20399;-77
2022/07/24 07:20:29;;;;;;;8.20;6.95;;;23.20;86.70;;;22.74;60.06;97686.59;5070578;28;20449;-74
2022/07/24 07:22:55;;;;;;;9.68;7.40;;;23.20;86.30;;;22.85;57.76;97680.84;5071084;28;20399;-77
2022/07/24 07:25:21;;;;;;;8.95;7.50;;;23.30;82.90;;;22.89;57.99;97689.88;5070594;28;20457;-76
2022/07/24 07:27:47;;;;;;;9.68;6.70;;;23.40;82.70;;;22.93;58.41;97688.91;5065426;28;20878;-76
2022/07/24 07:30:13;;;;;;;8.90;6.87;;;23.40;83.00;;;23.07;57.34;97686.00;5064552;28;20504;-78
2022/07/24 07:32:40;;;;;;;10.00;7.17;;;23.50;81.40;;;23.12;57.23;97685.81;5054458;28;20434;-78
2022/07/24 07:35:09;;;;;;;9.55;7.10;;;23.60;81.00;;;23.20;57.31;97693.09;5055740;28;20448;-75
2022/07/24 07:37:36;;;;;;;8.43;6.53;;;23.70;80.80;;;23.25;56.96;97692.09;5055598;28;20438;-79
2022/07/24 07:40:27;;;;;;;9.80;7.30;;;23.70;80.60;;;23.32;55.39;97687.78;5056467;28;20389;-81
2022/07/24 07:43:07;;;;;;;8.60;6.35;;;23.80;78.70;;;23.41;53.16;97691.22;5058711;28;20409;-79
2022/07/24 07:45:33;;;;;;;8.75;6.18;;;23.90;75.10;;;23.47;54.26;97686.41;5058749;28;20406;-76
2022/07/24 07:47:59;;;;;;;8.02;6.82;;;23.90;75.90;;;23.55;54.75;97688.31;5060338;28;20423;-74
2022/07/24 07:50:25;;;;;;;6.30;5.57;;;24.00;76.40;;;23.60;55.14;97688.13;5048859;28;20760;-76
2022/07/24 07:52:53;;;;;;;7.07;5.90;;;24.00;76.80;;;23.66;55.15;97686.81;5058590;28;20977;-74
2022/07/24 07:55:19;;;;;;;7.93;6.53;;;24.10;77.00;;;23.71;55.17;97686.59;5061261;28;20431;-75
2022/07/24 07:57:45;;;;;;;8.88;6.72;;;24.20;76.80;;;23.82;54.53;97687.03;5064618;22;20437;-80
2022/07/24 08:00:12;;;;;;;8.45;6.80;;;24.20;75.90;;;23.89;54.54;97688.09;5049131;28;20425;-76
2022/07/24 08:02:39;;;;;;;7.17;6.47;;;24.30;76.10;;;23.98;54.85;97688.00;5050701;28;20401;-75
2022/07/24 08:05:06;;;;;;;9.15;6.82;;;24.40;76.00;;;24.08;54.52;97690.31;5049422;28;20423;-74
2022/07/24 08:07:32;;;;;;;9.15;6.90;;;24.50;75.90;;;24.16;54.55;97681.31;5050368;28;20432;-74
2022/07/24 08:10:00;;;;;;;8.60;6.85;;;24.60;75.70;;;24.25;54.27;97686.69;5049327;28;20409;-76
2022/07/24 08:12:26;;;;;;;8.55;6.80;;;24.70;75.70;;;24.29;54.27;97682.97;5050005;28;20416;-77
2022/07/24 08:14:52;;;;;;;9.23;6.97;;;24.70;75.70;;;24.36;54.60;97681.66;5050041;28;20409;-77
2022/07/24 08:17:18;;;;;;;7.93;6.77;;;24.80;75.70;;;24.43;54.54;97679.22;5049723;28;20418;-79
2022/07/24 08:19:45;;;;;;;9.20;7.53;;;24.90;75.50;;;24.52;54.43;97688.00;5049358;28;20438;-80
2022/07/24 08:22:12;;;;;;;9.20;7.50;;;24.90;75.70;;;24.59;54.27;97678.22;5047537;28;20498;-79
2022/07/24 08:24:39;;;;;;;10.05;8.15;;;25.00;75.10;;;24.75;53.67;97683.00;5042789;28;20884;-77
2022/07/24 08:27:06;;;;;;;9.57;7.80;;;25.10;74.40;;;24.85;53.91;97679.84;5048759;28;20463;-78
2022/07/24 08:29:33;;;;;;;10.20;7.37;;;25.20;74.80;;;24.94;53.99;97678.66;5048127;28;20405;-76
2022/07/24 08:31:59;;;;;;;8.55;7.43;;;25.30;74.90;;;25.05;54.12;97671.66;5042076;28;20412;-78
2022/07/24 08:34:25;;;;;;;8.83;7.20;;;25.50;75.10;;;25.22;53.55;97675.28;5041444;28;20412;-78
2022/07/24 08:36:51;;;;;;;10.70;7.83;;;25.60;74.70;;;25.36;53.59;97676.50;5049690;28;20493;-78
2022/07/24 08:39:17;;;;;;;9.40;7.97;;;25.70;74.20;;;25.49;53.16;97671.84;5048948;28;20758;-77
2022/07/24 08:41:44;;;;;;;9.50;7.27;;;25.90;73.80;;;25.65;53.15;97667.34;5049663;28;20397;-76
2022/07/24 08:44:12;;;;;;;8.30;7.40;;;26.00;73.50;;;25.81;52.11;97670.94;5049762;28;20401;-76
2022/07/24 08:46:40;;;;;;;8.70;7.70;;;26.20;72.20;;;25.98;51.53;97669.09;5049549;28;20413;-78
2022/07/24 08:49:09;;;;;;;8.73;7.15;;;26.40;71.70;;;26.15;51.54;97664.16;5050340;28;20496;-79
2022/07/24 08:51:39;;;;;;;13.02;8.75;;;26.50;71.30;;;26.17;48.28;97661.88;5053540;28;20412;-78
2022/07/24 08:54:05;;;;;;;11.05;8.90;;;26.60;66.90;;;26.05;48.50;97663.84;5053619;28;20684;-79
2022/07/24 08:56:33;;;;;;;9.80;7.43;;;26.50;66.30;;;26.21;49.00;97668.19;5053454;28;20487;-78
2022/07/24 08:59:00;;;;;;;7.50;6.32;;;26.50;67.30;;;26.38;48.92;97667.16;5053007;28;20496;-78
2022/07/24 09:01:28;;;;;;;8.13;7.03;;;26.70;67.70;;;26.48;49.31;97672.06;5053528;28;20412;-77
2022/07/24 09:03:54;;;;;;;7.35;6.35;;;26.80;67.80;;;26.65;48.54;97673.66;5053441;28;20433;-77
2022/07/24 09:06:20;;;;;;;8.13;6.93;;;26.90;67.60;;;26.82;46.82;97669.81;5053282;28;20446;-77
2022/07/24 09:08:59;;;;;;;7.75;6.95;;;27.10;65.30;;;26.87;46.43;97664.13;5052929;28;20401;-78
2022/07/24 09:11:25;;;;;;;8.15;7.20;;;27.20;64.40;;;26.93;44.70;97668.19;5053176;28;20870;-78
2022/07/24 09:16:38;;;;;;;9.98;7.80;;;27.10;62.30;;;27.00;43.50;97671.06;5053197;28;20467;-78
2022/07/24 09:19:08;;;;;;;9.73;7.27;;;27.30;60.00;;;27.09;43.67;97677.13;5051450;28;20474;-78
2022/07/24 09:21:37;;;;;;;8.87;7.50;;;27.50;60.10;;;27.32;42.61;97672.63;5053021;28;20405;-78
2022/07/24 09:24:13;;;;;;;8.77;7.55;;;27.70;59.00;;;27.07;42.73;97670.44;5053106;28;20432;-77
2022/07/24 09:26:48;;;;;;;8.65;7.18;;;27.60;58.30;;;26.84;44.26;97673.00;5035253;28;20490;-78
2022/07/24 09:29:15;;;;;;;7.53;6.65;;;27.30;59.50;;;26.59;45.69;97678.56;5052526;28;20879;-79
2022/07/24 09:31:55;;;;;;;8.10;6.57;;;27.00;61.30;;;26.40;46.56;97673.00;5053085;28;20409;-80
2022/07/24 09:34:21;;;;;;;8.90;6.68;;;26.80;62.90;;;26.25;47.15;97668.31;5052959;28;20405;-79
2022/07/24 09:36:59;;;;;;;9.55;7.30;;;26.70;63.70;;;26.20;47.47;97673.97;5052797;28;20412;-79
2022/07/24 09:39:26;;;;;;;9.27;7.53;;;26.60;64.10;;;26.04;47.18;97675.84;5052246;28;20436;-79
2022/07/24 09:41:54;;;;;;;10.32;7.88;;;26.50;63.80;;;25.94;48.56;97682.53;5052995;28;20752;-79
2022/07/24 09:44:23;;;;;;;8.38;7.45;;;26.40;65.10;;;25.91;49.39;97682.44;5052831;28;20420;-79
2022/07/24 09:46:57;;;;;;;7.88;7.07;;;26.30;66.20;;;26.01;50.02;97668.41;5052553;28;20490;-79
2022/07/24 09:49:24;;;;;;;9.35;7.20;;;26.40;67.20;;;26.11;49.55;97670.59;5052006;28;20470;-78
2022/07/24 09:52:12;;;;;;;9.75;7.15;;;26.50;66.90;;;26.14;48.96;97672.66;5052590;28;20397;-78
2022/07/24 09:54:41;;;;;;;9.57;7.75;;;26.50;66.10;;;26.15;46.99;97666.88;5052415;28;20436;-79
2022/07/24 09:57:21;;;;;;;9.45;7.47;;;26.60;63.80;;;26.14;47.66;97657.16;5051693;28;20402;-79
2022/07/24 09:59:49;;;;;;;8.13;7.20;;;26.50;64.60;;;26.26;47.46;97656.31;5038704;28;20411;-78
2022/07/24 10:02:20;;;;;;;8.98;7.63;;;26.60;64.70;;;26.66;47.07;97655.44;5039163;28;20407;-78
2022/07/24 10:04:48;;;;;;;8.43;6.50;;;27.00;64.30;;;27.22;46.98;97664.22;5038955;28;20442;-77
2022/07/24 10:07:17;;;;;;;7.72;6.80;;;27.60;64.00;;;27.74;45.50;97653.78;5048298;28;20473;-78
2022/07/24 10:09:46;;;;;;;7.25;6.55;;;28.10;62.40;;;28.24;44.57;97648.59;5043817;28;20802;-77
2022/07/24 10:12:14;;;;;;;8.65;6.68;;;28.60;61.00;;;28.63;43.65;97647.38;5043413;28;20511;-77
2022/07/24 10:14:42;;;;;;;7.55;6.35;;;29.00;59.90;;;29.00;43.08;97652.31;5050271;28;20507;-75
2022/07/24 10:17:11;;;;;;;7.50;6.70;;;29.30;59.30;;;29.30;42.15;97642.25;5042583;28;20939;-77
2022/07/24 10:19:42;;;;;;;6.75;5.75;;;29.50;58.40;;;29.47;41.34;97649.91;5046516;28;20504;-76